Time;durP1;ratioP1;P1;durP2;ratioP2;P2;SDS_P1;SDS_P2;PMS_P1;PMS_P2;Temp;Humidity;BMP_temperature;BMP_pressure;BME280_temperature;BME280_humidity;BME280_pressure;Samples;Min_cycle;Max_cycle;Signal;HPM_P1;HPM_P2
2021/10/22 00:01:10;;;;;;;1.50;1.10;;;;;;;8.71;64.65;98776.59;229689;1193;138729;-69
2021/10/22 00:06:16;;;;;;;1.60;0.60;;;;;;;8.68;64.54;98792.73;228580;1193;140595;-69
2021/10/22 00:11:47;;;;;;;;;;;;;;;;;;;;;
2021/10/22 00:17:09;;;;;;;1.80;0.70;;;;;;;8.53;64.66;98812.95;227716;1193;139673;-69
2021/10/22 00:22:17;;;;;;;0.70;0.70;;;;;;;8.42;64.62;98819.05;229076;1193;138861;-70
2021/10/22 00:27:59;;;;;;;1.80;0.50;;;;;;;8.33;64.77;98837.44;229860;1193;139038;-69
2021/10/22 00:33:03;;;;;;;0.60;0.40;;;;;;;8.22;64.66;98838.04;227925;1193;140137;-69
2021/10/22 00:38:19;;;;;;;;;;;;;;;;;;;;;
2021/10/22 00:44:01;;;;;;;0.90;0.60;;;;;;;8.09;65.06;98843.49;227947;1193;140197;-69
2021/10/22 00:49:47;;;;;;;7.40;1.00;;;;;;;8.05;65.26;98836.27;227734;1193;138041;-69
2021/10/22 00:55:11;;;;;;;;;;;;;;;;;;;;;
2021/10/22 01:00:57;;;;;;;1.10;0.90;;;;;;;7.91;65.39;98837.27;228045;1193;139126;-68
2021/10/22 01:06:14;;;;;;;;;;;;;;;;;;;;;
2021/10/22 01:12:09;;;;;;;;;;;;;;;;;;;;;
2021/10/22 01:18:02;;;;;;;;;;;;;;;;;;;;;
2021/10/22 01:23:37;;;;;;;1.80;1.30;;;;;;;7.94;65.60;98883.42;228569;1192;139862;-68
2021/10/22 01:29:23;;;;;;;;;;;;;;;;;;;;;
2021/10/22 01:34:33;;;;;;;35.10;4.80;;;;;;;7.77;65.31;98908.09;230113;1192;140788;-68
2021/10/22 01:39:40;;;;;;;3.40;1.20;;;;;;;7.66;65.05;98906.41;230266;1193;140377;-69
2021/10/22 01:44:56;;;;;;;5.90;1.30;;;;;;;7.57;64.93;98920.08;230498;1193;224356;-69
2021/10/22 01:50:04;;;;;;;5.20;1.80;;;;;;;7.50;64.95;98929.42;230558;1193;139039;-69
2021/10/22 01:55:28;;;;;;;;;;;;;;;;;;;;;
2021/10/22 02:01:14;;;;;;;11.00;1.40;;;;;;;7.39;64.80;98925.22;228573;1193;139677;-67
2021/10/22 02:06:41;;;;;;;5.80;1.60;;;;;;;7.31;64.69;98931.95;227770;1193;140095;-68
2021/10/22 02:11:49;;;;;;;16.30;1.60;;;;;;;7.22;64.68;98930.59;229898;1192;140096;-69
2021/10/22 02:17:37;;;;;;;4.80;1.50;;;;;;;7.20;64.69;98943.63;228349;1193;140289;-68
2021/10/22 02:23:22;;;;;;;2.50;1.10;;;;;;;7.17;64.81;98944.00;228589;1193;138439;-68
2021/10/22 02:29:17;;;;;;;;;;;;;;;;;;;;;
2021/10/22 02:35:03;;;;;;;;;;;;;;;;;;;;;
2021/10/22 02:40:21;;;;;;;2.70;1.30;;;;;;;6.96;65.05;98954.36;227296;1193;140123;-67
2021/10/22 02:45:51;;;;;;;;;;;;;;;;;;;;;
2021/10/22 02:51:30;;;;;;;4.80;1.80;;;;;;;6.81;65.35;98968.34;227413;1193;140045;-68
2021/10/22 02:57:03;;;;;;;2.30;0.50;;;;;;;6.76;65.42;98977.23;227719;1192;141500;-68
2021/10/22 03:02:41;;;;;;;;;;;;;;;;;;;;;
2021/10/22 03:07:46;;;;;;;8.30;1.20;;;;;;;6.65;65.33;98988.67;229429;1192;140696;-69
2021/10/22 03:13:18;;;;;;;2.70;1.40;;;;;;;6.62;65.74;99004.06;228827;1193;139467;-68
2021/10/22 03:18:49;;;;;;;6.50;1.20;;;;;;;6.57;65.78;99009.67;228476;1193;138719;-68
2021/10/22 03:24:09;;;;;;;2.80;0.90;;;;;;;6.51;65.72;99010.40;227738;1193;138366;-67
2021/10/22 03:29:38;;;;;;;3.40;1.80;;;;;;;6.49;65.93;99015.12;230625;1193;139025;-68
2021/10/22 03:34:42;;;;;;;2.40;1.40;;;;;;;6.49;65.95;99018.62;230464;1193;139537;-68
2021/10/22 03:39:46;;;;;;;0.90;0.50;;;;;;;6.47;65.80;99021.14;230287;1193;138582;-68
2021/10/22 03:45:25;;;;;;;2.60;1.60;;;;;;;6.43;66.17;99027.66;228446;1193;138739;-68
2021/10/22 03:51:03;;;;;;;1.10;1.00;;;;;;;6.43;65.61;99036.83;229080;1193;139895;-68
2021/10/22 03:56:47;;;;;;;2.90;1.60;;;;;;;6.40;65.83;99041.64;227493;1193;140047;-68
2021/10/22 04:02:18;;;;;;;1.90;1.10;;;;;;;6.34;65.88;99044.73;227648;1193;138306;-67
2021/10/22 04:07:31;;;;;;;7.20;1.40;;;;;;;6.31;65.65;99051.70;227633;1193;138412;-67
2021/10/22 04:13:11;;;;;;;;;;;;;;;;;;;;;
2021/10/22 04:18:27;;;;;;;;;;;;;;;;;;;;;
2021/10/22 04:23:32;;;;;;;4.90;1.50;;;;;;;6.23;66.13;99062.88;227622;1193;139322;-69
2021/10/22 04:28:42;;;;;;;8.90;2.60;;;;;;;6.21;66.49;99061.23;228253;1193;140112;-67
2021/10/22 04:34:02;;;;;;;3.10;1.10;;;;;;;6.24;66.28;99061.55;228209;1193;142926;-68
2021/10/22 04:45:04;;;;;;;2.70;1.50;;;;;;;6.16;66.60;99080.17;227804;1180;138817;-67
2021/10/22 04:50:54;;;;;;;4.10;1.50;;;;;;;6.13;66.80;99085.59;227334;1193;139430;-66
2021/10/22 04:55:56;;;;;;;2.20;1.20;;;;;;;6.09;66.97;99093.02;229091;1187;138869;-69
2021/10/22 05:01:32;;;;;;;5.90;3.00;;;;;;;6.05;67.13;99097.14;230197;1193;139137;-67
2021/10/22 05:07:28;;;;;;;3.60;1.70;;;;;;;6.03;67.25;99100.16;228737;1193;140394;-68
2021/10/22 05:12:47;;;;;;;11.90;3.30;;;;;;;6.07;67.26;99114.05;229724;1193;141575;-67
2021/10/22 05:18:22;;;;;;;;;;;;;;;6.10;67.35;99116.91;230230;1193;140534;-68
2021/10/22 05:23:26;;;;;;;38.80;20.20;;;;;;;6.11;67.45;99123.36;231233;1193;124778;-68
2021/10/22 05:28:37;;;;;;;9.80;3.50;;;;;;;6.20;67.61;99138.02;230593;1193;139821;-68
2021/10/22 05:33:55;;;;;;;3.90;1.40;;;;;;;6.28;67.53;99135.83;230524;1193;139212;-70
2021/10/22 05:39:21;;;;;;;;;;;;;;;;;;;;;
2021/10/22 05:45:16;;;;;;;3.00;1.70;;;;;;;6.42;67.26;99137.40;229919;1193;141361;-68
2021/10/22 05:50:20;;;;;;;3.60;2.50;;;;;;;6.42;67.01;99140.70;230480;1193;139040;-71
2021/10/22 06:01:12;;;;;;;4.10;2.10;;;;;;;6.40;66.98;99149.61;229307;1193;139650;-70
2021/10/22 06:06:36;;;;;;;3.80;1.60;;;;;;;6.43;67.02;99163.21;229883;1192;139987;-68
2021/10/22 06:11:52;;;;;;;;;;;;;;;;;;;;;
2021/10/22 06:17:06;;;;;;;7.00;1.90;;;;;;;6.49;66.98;99171.10;227883;1193;139713;-69
2021/10/22 06:22:40;;;;;;;3.20;2.50;;;;;;;6.52;67.11;99175.01;228830;1193;204699;-67
2021/10/22 06:28:13;;;;;;;3.50;1.20;;;;;;;6.62;66.84;99179.42;228963;1193;139398;-68
2021/10/22 06:33:32;;;;;;;;;;;;;;;;;;;;;
2021/10/22 06:38:58;;;;;;;;;;;;;;;;;;;;;
2021/10/22 06:44:28;;;;;;;4.50;1.20;;;;;;;6.95;67.05;99174.34;229170;1193;140478;-68
2021/10/22 06:49:37;;;;;;;2.60;1.40;;;;;;;7.04;66.98;99179.83;228657;1193;138768;-68
2021/10/22 06:55:04;;;;;;;2.20;1.30;;;;;;;7.18;66.85;99183.79;229299;1193;140762;-68
2021/10/22 07:00:27;;;;;;;6.80;2.90;;;;;;;7.36;67.02;99189.12;230033;1193;140514;-68
2021/10/22 07:11:10;;;;;;;5.80;2.10;;;;;;;7.74;66.44;99207.09;230455;1192;140756;-72
2021/10/22 07:16:14;;;;;;;7.80;2.50;;;;;;;7.93;65.93;99209.55;230571;1192;140186;-71
2021/10/22 07:21:36;;;;;;;;;;;;;;;;;;;;;
2021/10/22 07:26:51;;;;;;;6.10;1.70;;;;;;;8.09;65.34;99220.17;230632;1192;138800;-70
2021/10/22 07:32:05;;;;;;;2.80;1.00;;;;;;;8.25;65.06;99221.73;229675;1193;140250;-68
2021/10/22 07:38:03;;;;;;;;;;;;;;;;;;;;;
2021/10/22 07:43:11;;;;;;;2.10;1.90;;;;;;;8.49;64.66;99231.76;229010;1193;138327;-68
2021/10/22 07:48:19;;;;;;;;;;;;;;;8.65;64.41;99234.63;230301;1192;139179;-67
2021/10/22 07:53:24;;;;;;;5.80;2.70;;;;;;;8.82;64.29;99249.50;230602;1192;126988;-68
2021/10/22 07:59:04;;;;;;;4.90;2.20;;;;;;;8.95;64.12;99253.36;229052;1193;138355;-68
2021/10/22 08:05:07;;;;;;;;;;;;;;;;;;;;;
2021/10/22 08:10:44;;;;;;;;;;;;;;;;;;;;;
2021/10/22 08:16:28;;;;;;;5.20;2.40;;;;;;;9.14;63.41;99257.99;228412;1193;139743;-69
2021/10/22 08:27:31;;;;;;;4.40;2.00;;;;;;;9.16;63.23;99256.02;228817;1193;138844;-69
2021/10/22 08:33:10;;;;;;;4.30;1.20;;;;;;;9.41;63.25;99262.86;228935;1193;138945;-69
2021/10/22 08:38:41;;;;;;;5.80;2.90;;;;;;;9.65;62.83;99258.77;228791;1193;141019;-70
2021/10/22 08:43:50;;;;;;;4.80;1.50;;;;;;;9.83;62.62;99258.11;229049;1193;140374;-69
2021/10/22 08:49:05;;;;;;;6.10;1.80;;;;;;;10.20;62.34;99256.11;229037;1193;139466;-69
2021/10/22 08:54:12;;;;;;;14.90;2.30;;;;;;;10.54;61.93;99254.79;230663;1193;139860;-70
2021/10/22 08:59:29;;;;;;;3.60;1.90;;;;;;;10.56;61.31;99253.21;229982;1193;139707;-70
2021/10/22 09:05:00;;;;;;;;;;;;;;;;;;;;;
2021/10/22 09:10:50;;;;;;;8.80;2.30;;;;;;;10.04;60.38;99259.52;230281;1192;143023;-70
2021/10/22 09:15:57;;;;;;;7.10;1.70;;;;;;;9.88;60.79;99259.88;230733;1193;140043;-69
2021/10/22 09:21:05;;;;;;;7.50;2.80;;;;;;;9.97;61.09;99254.66;230911;1192;138797;-69
2021/10/22 09:26:52;;;;;;;3.60;1.20;;;;;;;9.99;60.50;99251.95;230929;1193;140676;-69
2021/10/22 09:32:25;;;;;;;;;;;;;;;;;;;;;
2021/10/22 09:38:28;;;;;;;2.00;1.90;;;;;;;10.06;60.65;99255.56;227912;1193;141109;-69
2021/10/22 09:43:39;;;;;;;7.60;2.50;;;;;;;10.12;60.35;99262.55;227770;1193;139958;-69
2021/10/22 09:49:43;;;;;;;1.50;1.00;;;;;;;9.99;59.72;99261.05;228184;1192;138665;-69
2021/10/22 09:55:10;;;;;;;4.80;2.10;;;;;;;9.96;59.94;99244.33;228148;1192;139818;-69
2021/10/22 10:01:47;;;;;;;5.40;2.10;;;;;;;10.21;60.05;99254.52;227929;1193;139009;-68
2021/10/22 10:07:06;;;;;;;;;;;;;;;;;;;;;
2021/10/22 10:12:41;;;;;;;1.60;1.00;;;;;;;11.10;59.40;99233.13;227924;1192;138754;-69
2021/10/22 10:17:59;;;;;;;4.20;1.40;;;;;;;11.10;58.26;99222.19;227737;1193;139612;-69
2021/10/22 10:23:07;;;;;;;3.70;1.60;;;;;;;11.06;58.33;99222.34;228236;1192;139693;-70
2021/10/22 10:29:11;;;;;;;;;;;;;;;;;;;;;
2021/10/22 10:35:12;;;;;;;1.30;1.20;;;;;;;11.20;58.12;99216.85;228166;1193;138420;-70
2021/10/22 10:40:28;;;;;;;1.80;1.60;;;;;;;11.56;57.62;99215.93;228216;1192;138538;-69
2021/10/22 10:45:36;;;;;;;6.60;1.40;;;;;;;11.67;56.73;99215.48;229852;1193;140571;-70
2021/10/22 10:51:07;;;;;;;2.60;1.30;;;;;;;11.84;56.64;99209.24;229349;1193;138534;-71
2021/10/22 10:56:38;;;;;;;6.50;1.10;;;;;;;11.91;56.04;99207.75;227840;1193;139215;-70
2021/10/22 11:02:30;;;;;;;4.20;1.20;;;;;;;11.69;55.56;99201.89;228693;1193;139610;-71
2021/10/22 11:07:37;;;;;;;5.00;1.90;;;;;;;11.51;55.41;99193.61;230701;1192;140354;-72
2021/10/22 11:13:13;;;;;;;10.70;2.60;;;;;;;11.31;55.23;99198.34;230587;1193;139609;-72
2021/10/22 11:18:41;;;;;;;;;;;;;;;;;;;;;
2021/10/22 11:24:00;;;;;;;3.30;1.60;;;;;;;11.34;55.39;99193.23;229708;1193;139674;-70
2021/10/22 11:29:23;;;;;;;3.30;1.30;;;;;;;11.55;55.53;99182.39;228393;1193;138972;-66
2021/10/22 11:34:45;;;;;;;4.60;1.30;;;;;;;11.70;55.08;99184.42;228249;1192;138607;-71
2021/10/22 11:40:26;;;;;;;;;;;;;;;;;;;;;
2021/10/22 11:45:52;;;;;;;;;;;;;;;;;;;;;
2021/10/22 11:51:27;;;;;;;6.30;1.70;;;;;;;11.47;54.47;99172.50;228247;1193;138606;-70
2021/10/22 11:56:41;;;;;;;3.90;2.30;;;;;;;11.28;54.83;99170.09;228365;1193;140260;-69
2021/10/22 12:01:51;;;;;;;2.30;0.90;;;;;;;11.16;55.07;99176.91;228036;1193;140130;-68
2021/10/22 12:07:18;;;;;;;5.00;1.60;;;;;;;11.14;54.99;99167.88;229761;1192;139023;-69
2021/10/22 12:12:35;;;;;;;;;;;;;;;;;;;;;
2021/10/22 12:18:45;;;;;;;1.40;1.00;;;;;;;11.02;54.57;99159.54;228705;1192;139161;-69
2021/10/22 12:24:30;;;;;;;;;;;;;;;;;;;;;
2021/10/22 12:30:06;;;;;;;5.00;1.40;;;;;;;10.88;54.57;99148.95;227542;1193;139709;-68
2021/10/22 12:36:26;;;;;;;4.90;1.60;;;;;;;10.80;54.24;99142.13;228639;1193;139944;-68
2021/10/22 12:41:11;;;;;;;12.30;2.30;;;;;;;10.74;54.18;99142.23;228812;1193;139028;-69
2021/10/22 12:46:50;;;;;;;;;;;;;;;;;;;;;
2021/10/22 12:52:35;;;;;;;1.70;0.90;;;;;;;10.60;53.93;99145.07;228547;1192;138567;-69
2021/10/22 12:57:40;;;;;;;1.90;0.90;;;;;;;10.50;53.84;99149.45;228587;1193;139690;-68
2021/10/22 13:02:45;;;;;;;7.70;1.20;;;;;;;10.44;53.89;99151.04;230782;1192;140325;-68
2021/10/22 13:09:31;;;;;;;5.10;1.40;;;;;;;10.39;53.82;99154.93;230794;1193;138939;-69
2021/10/22 13:14:38;;;;;;;;;;;;;;;;;;;;;
2021/10/22 13:25:19;;;;;;;2.50;0.80;;;;;;;10.18;53.58;99143.43;230415;1192;138742;-69
2021/10/22 13:31:00;;;;;;;3.80;1.10;;;;;;;10.20;53.75;99129.86;229065;1193;139398;-70
2021/10/22 13:36:29;;;;;;;0.80;0.50;;;;;;;10.23;53.87;99134.42;228665;1193;140059;-69
2021/10/22 13:41:48;;;;;;;2.60;0.80;;;;;;;10.19;53.64;99124.07;228124;1193;139534;-69
2021/10/22 13:47:11;;;;;;;;;;;;;;;;;;;;;
2021/10/22 13:52:20;;;;;;;9.20;1.40;;;;;;;10.13;53.76;99103.89;228700;1193;140509;-69
2021/10/22 13:58:14;;;;;;;3.00;1.10;;;;;;;10.10;53.89;99105.94;227726;1193;138408;-69
2021/10/22 14:04:40;;;;;;;1.50;1.10;;;;;;;10.03;53.74;99097.45;229674;1192;139574;-68
2021/10/22 14:09:23;;;;;;;1.20;0.90;;;;;;;9.97;53.71;99087.35;229502;1193;139416;-71
2021/10/22 14:28:53;;;;;;;2.30;1.80;;;;;;;9.90;53.89;99066.06;229488;1192;139453;-68
2021/10/22 14:31:08;;;;;;;;;;;;;;;;;;;;;
2021/10/22 14:36:37;;;;;;;3.30;1.10;;;;;;;9.79;53.87;99059.96;228720;1193;139198;-71
2021/10/22 14:42:17;;;;;;;11.70;2.10;;;;;;;9.77;53.84;99059.09;228507;1193;139406;-70
2021/10/22 14:48:19;;;;;;;;;;;;;;;9.74;53.98;99064.64;228741;1192;140195;-71
2021/10/22 14:53:57;;;;;;;6.30;1.70;;;;;;;9.69;53.88;99067.02;231134;1193;125605;-70
2021/10/22 14:58:28;;;;;;;2.90;1.30;;;;;;;9.68;53.87;99069.87;230482;1193;139092;-69
2021/10/22 15:04:07;;;;;;;3.60;1.30;;;;;;;9.65;53.65;99067.70;230448;1193;139022;-69
2021/10/22 15:09:36;;;;;;;2.80;1.20;;;;;;;9.63;53.78;99061.13;228983;1193;139025;-68
2021/10/22 15:14:40;;;;;;;1.20;0.90;;;;;;;9.61;53.75;99052.67;229275;1193;140096;-67
2021/10/22 15:19:44;;;;;;;2.60;1.20;;;;;;;9.56;53.68;99053.56;228607;1193;138592;-68
2021/10/22 15:25:20;;;;;;;;;;;;;;;;;;;;;
2021/10/22 15:36:18;;;;;;;3.20;1.60;;;;;;;9.45;53.62;99053.95;229793;1193;138612;-69
2021/10/22 15:41:49;;;;;;;;;;;;;;;;;;;;;
2021/10/22 15:52:30;;;;;;;;;;;;;;;;;;;;;
2021/10/22 15:58:08;;;;;;;3.40;1.80;;;;;;;9.36;53.48;99071.48;225843;1200;140255;-68
2021/10/22 16:03:14;;;;;;;;;;;;;;;9.33;53.45;99062.60;227540;1199;140342;-69
2021/10/22 16:08:27;;;;;;;4.00;2.00;;;;;;;9.27;53.45;99062.08;227840;1198;126416;-68
2021/10/22 16:19:24;;;;;;;4.90;2.80;;;;;;;9.28;53.63;99068.53;227474;1198;138320;-68
2021/10/22 16:24:39;;;;;;;;;;;;;;;;;;;;;
2021/10/22 16:29:54;;;;;;;;;;;;;;;;;;;;;
2021/10/22 16:40:43;;;;;;;;;;;;;;;;;;;;;
2021/10/22 16:45:53;;;;;;;4.90;2.10;;;;;;;9.26;53.55;99090.72;227795;1200;140538;-67
2021/10/22 16:51:03;;;;;;;1.30;1.30;;;;;;;9.21;53.58;99105.20;226335;1199;139885;-70
2021/10/22 16:56:17;;;;;;;2.90;2.40;;;;;;;9.15;53.79;99108.00;227758;1193;140333;-69
2021/10/22 17:01:39;;;;;;;1.40;1.30;;;;;;;9.09;54.18;99111.79;226936;1200;138321;-68
2021/10/22 17:06:44;;;;;;;8.20;2.00;;;;;;;9.07;53.98;99108.23;228942;1200;139387;-74
2021/10/22 17:11:49;;;;;;;4.00;1.60;;;;;;;9.05;54.24;99109.17;229126;1199;141474;-73
2021/10/22 17:16:56;;;;;;;5.90;1.50;;;;;;;9.06;54.39;99105.89;228996;1199;139309;-71
2021/10/22 17:21:59;;;;;;;3.40;1.50;;;;;;;9.05;54.42;99110.11;228966;1200;139525;-71
2021/10/22 17:27:04;;;;;;;2.50;1.40;;;;;;;9.03;54.53;99110.77;228543;1199;139297;-69
2021/10/22 17:32:46;;;;;;;;;;;;;;;;;;;;;
2021/10/22 17:38:04;;;;;;;1.40;1.20;;;;;;;8.98;54.94;99102.23;228041;1198;140034;-70
2021/10/22 17:43:16;;;;;;;9.00;2.20;;;;;;;8.95;55.22;99091.33;227705;1198;138671;-68
2021/10/22 17:48:21;;;;;;;1.30;1.20;;;;;;;8.93;55.17;99089.90;228829;1198;138881;-70
2021/10/22 17:53:41;;;;;;;6.50;2.70;;;;;;;8.91;55.15;99085.72;227020;1198;139905;-70
2021/10/22 17:58:50;;;;;;;3.80;2.60;;;;;;;8.90;55.30;99081.61;226702;1198;139444;-69
2021/10/22 18:04:12;;;;;;;;;;;;;;;;;;;;;
2021/10/22 18:09:47;;;;;;;7.80;1.70;;;;;;;8.88;55.37;99083.23;226436;1198;139094;-69
2021/10/22 18:15:07;;;;;;;4.10;1.10;;;;;;;8.89;55.25;99084.88;226544;1198;204256;-67
2021/10/22 18:20:45;;;;;;;5.30;1.90;;;;;;;8.91;55.38;99084.01;226552;1198;139404;-69
2021/10/22 18:26:06;;;;;;;7.50;2.70;;;;;;;8.92;55.21;99083.93;226167;1198;138783;-69
2021/10/22 18:31:20;;;;;;;5.30;2.60;;;;;;;8.95;55.24;99080.20;226359;1198;139871;-69
2021/10/22 18:36:29;;;;;;;5.30;2.40;;;;;;;8.96;55.23;99087.58;226384;1198;138301;-70
2021/10/22 18:41:34;;;;;;;1.40;1.30;;;;;;;8.99;55.14;99092.14;226113;1198;141926;-69
2021/10/22 18:46:55;;;;;;;4.40;1.60;;;;;;;9.02;55.23;99090.55;226071;1198;139219;-68
2021/10/22 18:52:14;;;;;;;5.10;1.70;;;;;;;9.04;55.17;99093.98;226758;1198;138822;-69
2021/10/22 18:57:21;;;;;;;2.30;1.60;;;;;;;9.07;55.25;99096.48;229254;1198;139190;-71
2021/10/22 19:02:37;;;;;;;2.00;1.50;;;;;;;9.11;55.27;99107.77;227856;1198;139238;-69
2021/10/22 19:07:55;;;;;;;10.20;1.90;;;;;;;9.10;55.48;99111.60;226506;1198;138779;-70
2021/10/22 19:13:16;;;;;;;3.10;1.30;;;;;;;9.08;55.84;99131.44;226191;1198;138769;-68
2021/10/22 19:18:22;;;;;;;4.50;1.40;;;;;;;9.00;56.46;99141.19;228595;1198;140228;-69
2021/10/22 19:23:28;;;;;;;4.70;1.70;;;;;;;8.84;57.36;99160.72;229142;1198;139632;-69
2021/10/22 19:28:57;;;;;;;12.40;3.00;;;;;;;8.66;58.47;99190.77;228980;1198;139484;-69
2021/10/22 19:34:26;;;;;;;;;;;;;;;;;;;;;
2021/10/22 19:39:48;;;;;;;;;;;;;;;;;;;;;
2021/10/22 19:45:08;;;;;;;5.80;3.20;;;;;;;7.84;62.53;99223.41;226496;1199;150391;-69
2021/10/22 19:50:33;;;;;;;;;;;;;;;;;;;;;
2021/10/22 19:55:41;;;;;;;2.80;1.90;;;;;;;7.51;64.10;99247.32;226392;1200;139453;-69
2021/10/22 20:01:12;;;;;;;4.70;2.20;;;;;;;7.45;64.73;99261.16;227180;1200;139053;-69
2021/10/22 20:06:35;;;;;;;6.70;2.70;;;;;;;7.38;65.03;99267.33;226553;1200;138823;-68
2021/10/22 20:11:56;;;;;;;3.90;2.20;;;;;;;7.31;65.50;99268.61;226208;1199;141083;-69
2021/10/22 20:17:15;;;;;;;;;;;;;;;;;;;;;
2021/10/22 20:22:30;;;;;;;4.20;1.70;;;;;;;7.21;66.13;99293.92;226164;1200;140285;-68
2021/10/22 20:28:25;;;;;;;1.70;0.90;;;;;;;7.11;66.62;99297.33;226212;1200;141001;-68
2021/10/22 20:33:57;;;;;;;0.90;0.90;;;;;;;7.06;67.24;99303.80;226283;1184;139199;-68
2021/10/22 20:39:52;;;;;;;0.60;0.60;;;;;;;7.01;67.59;99300.23;226811;1198;141067;-68
2021/10/22 20:45:13;;;;;;;6.30;1.40;;;;;;;6.94;67.99;99305.16;226349;1198;138800;-69
2021/10/22 21:02:07;;;;;;;0.50;0.50;;;;;;;6.84;68.93;99321.70;226071;1200;139876;-68
2021/10/22 21:07:13;;;;;;;2.20;1.60;;;;;;;6.83;69.37;99326.89;226708;1198;138717;-69
2021/10/22 21:12:21;;;;;;;1.20;1.10;;;;;;;6.84;69.13;99338.66;226754;1198;139628;-68
2021/10/22 21:17:25;;;;;;;1.10;1.00;;;;;;;6.84;69.58;99347.77;228884;1198;139757;-70
2021/10/22 21:22:33;;;;;;;1.20;1.10;;;;;;;6.85;69.35;99352.75;229055;1200;139184;-69
2021/10/22 21:28:07;;;;;;;2.40;1.30;;;;;;;6.86;69.71;99357.10;227825;1198;140238;-68
2021/10/22 21:33:16;;;;;;;3.50;1.40;;;;;;;6.86;69.41;99366.51;229074;1198;138902;-69
2021/10/22 21:38:22;;;;;;;1.10;0.90;;;;;;;6.85;69.78;99378.51;229153;1198;140589;-70
2021/10/22 21:43:29;;;;;;;3.60;1.40;;;;;;;6.86;69.82;99387.59;229220;1198;139471;-70
2021/10/22 21:48:37;;;;;;;4.30;1.70;;;;;;;6.89;70.02;99391.96;227412;1198;139556;-70
2021/10/22 21:53:52;;;;;;;1.40;1.30;;;;;;;6.88;69.91;99391.85;227035;1198;139499;-67
2021/10/22 21:59:00;;;;;;;3.30;2.30;;;;;;;6.88;70.13;99399.48;226148;1198;140954;-69
2021/10/22 22:04:08;;;;;;;1.50;1.20;;;;;;;6.91;70.00;99401.08;226842;1198;140356;-69
2021/10/22 22:09:16;;;;;;;1.60;1.50;;;;;;;6.91;70.20;99411.06;226452;1198;139901;-69
2021/10/22 22:14:29;;;;;;;2.50;1.50;;;;;;;6.92;70.24;99415.49;226804;1198;139037;-69
2021/10/22 22:19:52;;;;;;;1.70;1.60;;;;;;;6.93;70.30;99420.66;227471;1198;140338;-69
2021/10/22 22:25:12;;;;;;;1.20;1.10;;;;;;;6.94;70.50;99423.88;226605;1200;142936;-68
2021/10/22 22:30:32;;;;;;;5.00;2.00;;;;;;;6.92;70.50;99425.65;226355;1198;139151;-68
2021/10/22 22:36:11;;;;;;;;;;;;;;;;;;;;;
2021/10/22 22:41:34;;;;;;;2.50;2.40;;;;;;;6.90;70.58;99442.22;227377;1198;150675;-68
2021/10/22 22:46:50;;;;;;;3.70;2.60;;;;;;;6.83;70.47;99445.20;226289;1198;138966;-69
2021/10/22 22:52:25;;;;;;;3.20;2.20;;;;;;;6.81;70.67;99449.42;226256;1199;139035;-68
2021/10/22 22:57:53;;;;;;;2.50;1.90;;;;;;;6.81;70.53;99458.84;226879;1199;140064;-68
2021/10/22 23:03:02;;;;;;;2.60;2.40;;;;;;;6.78;70.51;99455.11;227152;1198;139840;-68
2021/10/22 23:08:19;;;;;;;2.70;2.30;;;;;;;6.72;70.52;99450.36;226391;1198;138945;-69
2021/10/22 23:13:49;;;;;;;1.80;1.60;;;;;;;6.66;70.34;99460.19;226346;1198;150776;-69
2021/10/22 23:18:54;;;;;;;2.40;1.70;;;;;;;6.60;70.31;99476.83;229336;1198;140336;-69
2021/10/22 23:24:03;;;;;;;4.20;2.80;;;;;;;6.57;70.56;99485.03;226204;1198;140244;-68
2021/10/22 23:29:13;;;;;;;2.20;1.60;;;;;;;6.55;70.52;99488.47;226569;1198;140271;-68
2021/10/22 23:34:18;;;;;;;1.30;1.10;;;;;;;6.48;70.20;99493.48;229276;1198;140332;-70
2021/10/22 23:39:49;;;;;;;2.80;1.50;;;;;;;6.36;70.10;99491.81;228687;1198;139372;-69
2021/10/22 23:44:54;;;;;;;4.70;2.10;;;;;;;6.29;70.47;99510.98;229349;1198;139332;-69
2021/10/22 23:50:02;;;;;;;3.00;2.00;;;;;;;6.27;70.56;99526.73;226831;1198;139274;-68
2021/10/22 23:55:11;;;;;;;1.40;1.30;;;;;;;6.33;70.77;99525.64;228721;1198;140134;-69
